sensor_id;sensor_type;location;lat;lon;timestamp;temperature;humidity
76211;DHT22;65003;49.518;11.280;2024-01-30T00:02:23;2.20;99.90
76211;DHT22;65003;49.518;11.280;2024-01-30T00:04:50;2.20;99.90
76211;DHT22;65003;49.518;11.280;2024-01-30T00:07:16;2.30;99.90
76211;DHT22;65003;49.518;11.280;2024-01-30T00:09:45;2.00;99.90
76211;DHT22;65003;49.518;11.280;2024-01-30T00:12:10;2.20;99.90
76211;DHT22;65003;49.518;11.280;2024-01-30T00:14:36;2.20;99.90
76211;DHT22;65003;49.518;11.280;2024-01-30T00:17:03;2.10;99.90
76211;DHT22;65003;49.518;11.280;2024-01-30T00:19:30;2.20;99.90
76211;DHT22;65003;49.518;11.280;2024-01-30T00:21:56;2.10;99.90
76211;DHT22;65003;49.518;11.280;2024-01-30T00:24:23;2.10;99.90
76211;DHT22;65003;49.518;11.280;2024-01-30T00:26:50;2.30;99.90
76211;DHT22;65003;49.518;11.280;2024-01-30T00:29:17;2.10;99.90
76211;DHT22;65003;49.518;11.280;2024-01-30T00:31:44;2.30;99.90
76211;DHT22;65003;49.518;11.280;2024-01-30T00:34:10;2.10;99.90
76211;DHT22;65003;49.518;11.280;2024-01-30T00:36:37;2.10;99.90
76211;DHT22;65003;49.518;11.280;2024-01-30T00:39:04;1.20;99.90
76211;DHT22;65003;49.518;11.280;2024-01-30T00:41:32;2.00;99.90
76211;DHT22;65003;49.518;11.280;2024-01-30T00:43:59;2.00;99.90
76211;DHT22;65003;49.518;11.280;2024-01-30T00:46:25;2.20;99.90
76211;DHT22;65003;49.518;11.280;2024-01-30T00:48:52;2.10;99.90
76211;DHT22;65003;49.518;11.280;2024-01-30T00:51:19;2.10;99.90
76211;DHT22;65003;49.518;11.280;2024-01-30T00:53:45;2.00;99.90
76211;DHT22;65003;49.518;11.280;2024-01-30T00:56:12;2.10;99.90
76211;DHT22;65003;49.518;11.280;2024-01-30T00:58:39;2.20;99.90
76211;DHT22;65003;49.518;11.280;2024-01-30T01:01:05;2.10;99.90
76211;DHT22;65003;49.518;11.280;2024-01-30T01:03:32;2.20;99.90
76211;DHT22;65003;49.518;11.280;2024-01-30T01:05:59;1.90;99.90
76211;DHT22;65003;49.518;11.280;2024-01-30T01:08:26;1.80;99.90
76211;DHT22;65003;49.518;11.280;2024-01-30T01:10:54;2.40;99.90
76211;DHT22;65003;49.518;11.280;2024-01-30T01:13:21;1.90;99.90
76211;DHT22;65003;49.518;11.280;2024-01-30T01:15:51;1.80;99.90
76211;DHT22;65003;49.518;11.280;2024-01-30T01:18:18;1.70;99.90
76211;DHT22;65003;49.518;11.280;2024-01-30T01:20:45;2.00;99.90
76211;DHT22;65003;49.518;11.280;2024-01-30T01:23:11;1.80;99.90
76211;DHT22;65003;49.518;11.280;2024-01-30T01:25:38;2.00;99.90
76211;DHT22;65003;49.518;11.280;2024-01-30T01:28:05;1.60;99.90
76211;DHT22;65003;49.518;11.280;2024-01-30T01:30:32;1.40;99.90
76211;DHT22;65003;49.518;11.280;2024-01-30T01:32:58;1.50;99.90
76211;DHT22;65003;49.518;11.280;2024-01-30T01:35:25;1.50;99.90
76211;DHT22;65003;49.518;11.280;2024-01-30T01:37:52;1.50;99.90
76211;DHT22;65003;49.518;11.280;2024-01-30T01:40:23;1.60;99.90
76211;DHT22;65003;49.518;11.280;2024-01-30T01:42:50;1.70;99.90
76211;DHT22;65003;49.518;11.280;2024-01-30T01:45:17;2.60;99.90
76211;DHT22;65003;49.518;11.280;2024-01-30T01:47:43;1.60;99.90
76211;DHT22;65003;49.518;11.280;2024-01-30T01:50:10;1.60;99.90
76211;DHT22;65003;49.518;11.280;2024-01-30T01:52:38;1.70;99.90
76211;DHT22;65003;49.518;11.280;2024-01-30T01:55:05;1.70;99.90
76211;DHT22;65003;49.518;11.280;2024-01-30T01:57:33;1.60;99.90
76211;DHT22;65003;49.518;11.280;2024-01-30T01:59:59;1.80;99.90
76211;DHT22;65003;49.518;11.280;2024-01-30T02:02:25;1.70;99.90
76211;DHT22;65003;49.518;11.280;2024-01-30T02:04:52;1.90;99.90
76211;DHT22;65003;49.518;11.280;2024-01-30T02:07:19;1.90;99.90
76211;DHT22;65003;49.518;11.280;2024-01-30T02:09:46;2.00;99.90
76211;DHT22;65003;49.518;11.280;2024-01-30T02:12:12;2.20;99.90
76211;DHT22;65003;49.518;11.280;2024-01-30T02:14:45;2.10;99.90
76211;DHT22;65003;49.518;11.280;2024-01-30T02:17:11;2.00;99.90
76211;DHT22;65003;49.518;11.280;2024-01-30T02:19:37;2.00;99.90
76211;DHT22;65003;49.518;11.280;2024-01-30T02:22:04;2.00;99.90
76211;DHT22;65003;49.518;11.280;2024-01-30T02:24:30;2.00;99.90
76211;DHT22;65003;49.518;11.280;2024-01-30T02:26:57;2.00;99.90
76211;DHT22;65003;49.518;11.280;2024-01-30T02:29:23;2.00;99.90
76211;DHT22;65003;49.518;11.280;2024-01-30T02:31:51;1.90;99.90
76211;DHT22;65003;49.518;11.280;2024-01-30T02:34:18;2.00;99.90
76211;DHT22;65003;49.518;11.280;2024-01-30T02:36:45;1.90;99.90
76211;DHT22;65003;49.518;11.280;2024-01-30T02:39:12;1.90;99.90
76211;DHT22;65003;49.518;11.280;2024-01-30T02:41:39;1.90;99.90
76211;DHT22;65003;49.518;11.280;2024-01-30T02:44:05;1.80;99.90
76211;DHT22;65003;49.518;11.280;2024-01-30T02:46:32;1.00;99.90
76211;DHT22;65003;49.518;11.280;2024-01-30T02:48:59;1.30;99.90
76211;DHT22;65003;49.518;11.280;2024-01-30T02:51:25;1.60;99.90
76211;DHT22;65003;49.518;11.280;2024-01-30T02:53:52;1.90;99.90
76211;DHT22;65003;49.518;11.280;2024-01-30T02:56:19;1.80;99.90
76211;DHT22;65003;49.518;11.280;2024-01-30T02:58:46;1.90;99.90
76211;DHT22;65003;49.518;11.280;2024-01-30T03:01:12;2.10;99.90
76211;DHT22;65003;49.518;11.280;2024-01-30T03:03:39;1.90;99.90
76211;DHT22;65003;49.518;11.280;2024-01-30T03:06:06;2.10;99.90
76211;DHT22;65003;49.518;11.280;2024-01-30T03:08:32;2.20;99.90
76211;DHT22;65003;49.518;11.280;2024-01-30T03:10:59;2.10;99.90
76211;DHT22;65003;49.518;11.280;2024-01-30T03:13:26;2.10;99.90
76211;DHT22;65003;49.518;11.280;2024-01-30T03:15:52;2.00;99.90
76211;DHT22;65003;49.518;11.280;2024-01-30T03:18:19;2.50;99.90
76211;DHT22;65003;49.518;11.280;2024-01-30T03:20:46;2.30;99.90
76211;DHT22;65003;49.518;11.280;2024-01-30T03:23:13;2.60;99.90
76211;DHT22;65003;49.518;11.280;2024-01-30T03:25:39;2.40;99.90
76211;DHT22;65003;49.518;11.280;2024-01-30T03:28:07;2.60;99.90
76211;DHT22;65003;49.518;11.280;2024-01-30T03:30:34;2.60;99.90
76211;DHT22;65003;49.518;11.280;2024-01-30T03:33:00;2.70;99.90
76211;DHT22;65003;49.518;11.280;2024-01-30T03:35:27;2.80;99.90
76211;DHT22;65003;49.518;11.280;2024-01-30T03:37:53;2.80;99.90
76211;DHT22;65003;49.518;11.280;2024-01-30T03:40:20;2.80;99.90
76211;DHT22;65003;49.518;11.280;2024-01-30T03:42:46;2.80;99.90
76211;DHT22;65003;49.518;11.280;2024-01-30T03:45:13;2.80;99.90
76211;DHT22;65003;49.518;11.280;2024-01-30T03:47:43;2.80;99.90
76211;DHT22;65003;49.518;11.280;2024-01-30T03:50:10;2.80;99.90
76211;DHT22;65003;49.518;11.280;2024-01-30T03:52:36;2.80;99.90
76211;DHT22;65003;49.518;11.280;2024-01-30T03:55:03;3.00;99.90
76211;DHT22;65003;49.518;11.280;2024-01-30T03:57:30;3.00;99.90
76211;DHT22;65003;49.518;11.280;2024-01-30T03:59:57;2.80;99.90
76211;DHT22;65003;49.518;11.280;2024-01-30T04:02:23;2.90;99.90
76211;DHT22;65003;49.518;11.280;2024-01-30T04:04:50;2.70;99.90
76211;DHT22;65003;49.518;11.280;2024-01-30T04:07:16;2.70;99.90
76211;DHT22;65003;49.518;11.280;2024-01-30T04:09:43;2.70;99.90
76211;DHT22;65003;49.518;11.280;2024-01-30T04:12:10;1.70;99.90
76211;DHT22;65003;49.518;11.280;2024-01-30T04:14:38;2.70;99.90
76211;DHT22;65003;49.518;11.280;2024-01-30T04:17:04;2.80;99.90
76211;DHT22;65003;49.518;11.280;2024-01-30T04:19:31;2.90;99.90
76211;DHT22;65003;49.518;11.280;2024-01-30T04:21:58;2.70;99.90
76211;DHT22;65003;49.518;11.280;2024-01-30T04:24:24;2.70;99.90
76211;DHT22;65003;49.518;11.280;2024-01-30T04:26:51;2.80;99.90
76211;DHT22;65003;49.518;11.280;2024-01-30T04:29:17;2.90;99.70
76211;DHT22;65003;49.518;11.280;2024-01-30T04:31:44;2.90;99.80
76211;DHT22;65003;49.518;11.280;2024-01-30T04:34:11;2.90;99.80
76211;DHT22;65003;49.518;11.280;2024-01-30T04:36:38;3.00;99.90
76211;DHT22;65003;49.518;11.280;2024-01-30T04:39:05;2.90;99.90
76211;DHT22;65003;49.518;11.280;2024-01-30T04:41:31;3.00;99.90
76211;DHT22;65003;49.518;11.280;2024-01-30T04:43:58;2.90;99.90
76211;DHT22;65003;49.518;11.280;2024-01-30T04:46:25;2.70;99.90
76211;DHT22;65003;49.518;11.280;2024-01-30T04:48:51;2.70;99.90
76211;DHT22;65003;49.518;11.280;2024-01-30T04:51:18;2.60;99.90
76211;DHT22;65003;49.518;11.280;2024-01-30T04:53:44;2.70;99.90
76211;DHT22;65003;49.518;11.280;2024-01-30T04:56:11;2.70;99.90
76211;DHT22;65003;49.518;11.280;2024-01-30T04:58:38;2.60;99.90
76211;DHT22;65003;49.518;11.280;2024-01-30T05:01:04;2.60;99.90
76211;DHT22;65003;49.518;11.280;2024-01-30T05:03:34;2.60;99.90
76211;DHT22;65003;49.518;11.280;2024-01-30T05:06:00;2.80;99.90
76211;DHT22;65003;49.518;11.280;2024-01-30T05:08:27;2.60;99.90
76211;DHT22;65003;49.518;11.280;2024-01-30T05:10:54;2.40;99.90
76211;DHT22;65003;49.518;11.280;2024-01-30T05:13:20;2.60;99.90
76211;DHT22;65003;49.518;11.280;2024-01-30T05:15:47;2.30;99.90
76211;DHT22;65003;49.518;11.280;2024-01-30T05:18:13;2.30;99.90
76211;DHT22;65003;49.518;11.280;2024-01-30T05:20:40;2.40;99.90
76211;DHT22;65003;49.518;11.280;2024-01-30T05:23:06;2.30;99.90
76211;DHT22;65003;49.518;11.280;2024-01-30T05:25:33;2.60;99.90
76211;DHT22;65003;49.518;11.280;2024-01-30T05:28:00;2.40;99.90
76211;DHT22;65003;49.518;11.280;2024-01-30T05:30:26;2.10;99.90
76211;DHT22;65003;49.518;11.280;2024-01-30T05:32:53;2.60;99.90
76211;DHT22;65003;49.518;11.280;2024-01-30T05:35:19;2.40;99.90
76211;DHT22;65003;49.518;11.280;2024-01-30T05:37:47;2.60;99.90
76211;DHT22;65003;49.518;11.280;2024-01-30T05:40:13;2.40;99.90
76211;DHT22;65003;49.518;11.280;2024-01-30T05:42:39;2.20;99.90
76211;DHT22;65003;49.518;11.280;2024-01-30T05:45:06;2.40;99.90
76211;DHT22;65003;49.518;11.280;2024-01-30T05:47:33;2.30;99.90
76211;DHT22;65003;49.518;11.280;2024-01-30T05:50:00;2.10;99.90
76211;DHT22;65003;49.518;11.280;2024-01-30T05:52:26;2.00;99.90
76211;DHT22;65003;49.518;11.280;2024-01-30T05:54:53;1.90;99.90
76211;DHT22;65003;49.518;11.280;2024-01-30T05:57:19;1.80;99.90
76211;DHT22;65003;49.518;11.280;2024-01-30T05:59:46;1.60;99.90
76211;DHT22;65003;49.518;11.280;2024-01-30T06:02:13;1.60;99.90
76211;DHT22;65003;49.518;11.280;2024-01-30T06:04:39;1.70;99.90
76211;DHT22;65003;49.518;11.280;2024-01-30T06:07:06;1.70;99.90
76211;DHT22;65003;49.518;11.280;2024-01-30T06:09:34;1.70;99.90
76211;DHT22;65003;49.518;11.280;2024-01-30T06:12:00;1.50;99.90
76211;DHT22;65003;49.518;11.280;2024-01-30T06:14:27;1.50;99.90
76211;DHT22;65003;49.518;11.280;2024-01-30T06:16:53;1.50;99.90
76211;DHT22;65003;49.518;11.280;2024-01-30T06:19:20;1.50;99.90
76211;DHT22;65003;49.518;11.280;2024-01-30T06:21:46;1.50;99.90
76211;DHT22;65003;49.518;11.280;2024-01-30T06:24:13;1.50;99.90
76211;DHT22;65003;49.518;11.280;2024-01-30T06:26:40;1.50;99.90
76211;DHT22;65003;49.518;11.280;2024-01-30T06:29:06;1.50;99.90
76211;DHT22;65003;49.518;11.280;2024-01-30T06:31:33;1.60;99.90
76211;DHT22;65003;49.518;11.280;2024-01-30T06:34:00;1.90;99.90
76211;DHT22;65003;49.518;11.280;2024-01-30T06:36:27;1.80;99.90
76211;DHT22;65003;49.518;11.280;2024-01-30T06:38:54;1.90;99.90
76211;DHT22;65003;49.518;11.280;2024-01-30T06:41:20;1.90;99.90
76211;DHT22;65003;49.518;11.280;2024-01-30T06:43:47;2.00;99.90
76211;DHT22;65003;49.518;11.280;2024-01-30T06:46:13;2.20;99.90
76211;DHT22;65003;49.518;11.280;2024-01-30T06:48:40;2.10;99.90
76211;DHT22;65003;49.518;11.280;2024-01-30T06:51:09;2.00;99.90
76211;DHT22;65003;49.518;11.280;2024-01-30T06:53:36;2.20;99.90
76211;DHT22;65003;49.518;11.280;2024-01-30T06:56:03;2.30;99.90
76211;DHT22;65003;49.518;11.280;2024-01-30T06:58:29;2.20;99.90
76211;DHT22;65003;49.518;11.280;2024-01-30T07:00:56;2.20;99.90
76211;DHT22;65003;49.518;11.280;2024-01-30T07:03:22;1.60;99.90
76211;DHT22;65003;49.518;11.280;2024-01-30T07:05:49;2.30;99.90
76211;DHT22;65003;49.518;11.280;2024-01-30T07:08:16;2.30;99.90
76211;DHT22;65003;49.518;11.280;2024-01-30T07:10:44;1.60;99.90
76211;DHT22;65003;49.518;11.280;2024-01-30T07:13:11;2.30;99.90
76211;DHT22;65003;49.518;11.280;2024-01-30T07:15:38;2.10;99.90
76211;DHT22;65003;49.518;11.280;2024-01-30T07:18:05;2.30;99.90
76211;DHT22;65003;49.518;11.280;2024-01-30T07:20:31;2.30;99.90
76211;DHT22;65003;49.518;11.280;2024-01-30T07:22:58;2.50;99.90
76211;DHT22;65003;49.518;11.280;2024-01-30T07:25:25;2.50;99.90
76211;DHT22;65003;49.518;11.280;2024-01-30T07:27:52;2.50;99.90
76211;DHT22;65003;49.518;11.280;2024-01-30T07:30:20;2.70;99.90
76211;DHT22;65003;49.518;11.280;2024-01-30T07:32:46;2.50;99.90
76211;DHT22;65003;49.518;11.280;2024-01-30T07:35:13;2.60;99.90
76211;DHT22;65003;49.518;11.280;2024-01-30T07:37:40;2.80;99.90
76211;DHT22;65003;49.518;11.280;2024-01-30T07:40:06;2.90;99.90
76211;DHT22;65003;49.518;11.280;2024-01-30T07:42:33;2.80;99.90
76211;DHT22;65003;49.518;11.280;2024-01-30T07:45:00;2.80;99.90
76211;DHT22;65003;49.518;11.280;2024-01-30T07:47:27;2.90;99.90
76211;DHT22;65003;49.518;11.280;2024-01-30T07:49:53;2.90;99.90
76211;DHT22;65003;49.518;11.280;2024-01-30T07:52:20;2.90;99.90
76211;DHT22;65003;49.518;11.280;2024-01-30T07:54:46;2.00;99.90
76211;DHT22;65003;49.518;11.280;2024-01-30T07:57:13;3.00;99.90
76211;DHT22;65003;49.518;11.280;2024-01-30T07:59:41;3.20;99.90
76211;DHT22;65003;49.518;11.280;2024-01-30T08:02:06;3.40;99.90
76211;DHT22;65003;49.518;11.280;2024-01-30T08:04:33;2.40;99.90
76211;DHT22;65003;49.518;11.280;2024-01-30T08:06:59;3.30;99.90
76211;DHT22;65003;49.518;11.280;2024-01-30T08:09:26;3.50;99.90
76211;DHT22;65003;49.518;11.280;2024-01-30T08:11:52;3.50;99.90
76211;DHT22;65003;49.518;11.280;2024-01-30T08:14:19;3.90;99.90
76211;DHT22;65003;49.518;11.280;2024-01-30T08:16:46;3.50;99.90
76211;DHT22;65003;49.518;11.280;2024-01-30T08:19:12;3.60;99.90
76211;DHT22;65003;49.518;11.280;2024-01-30T08:21:39;3.70;99.90
76211;DHT22;65003;49.518;11.280;2024-01-30T08:24:06;4.00;99.90
76211;DHT22;65003;49.518;11.280;2024-01-30T08:26:33;3.70;99.90
76211;DHT22;65003;49.518;11.280;2024-01-30T08:28:59;4.00;99.90
76211;DHT22;65003;49.518;11.280;2024-01-30T08:31:26;4.00;99.90
76211;DHT22;65003;49.518;11.280;2024-01-30T08:33:53;4.40;99.90
76211;DHT22;65003;49.518;11.280;2024-01-30T08:36:19;4.30;99.90
76211;DHT22;65003;49.518;11.280;2024-01-30T08:38:46;4.40;99.90
76211;DHT22;65003;49.518;11.280;2024-01-30T08:41:12;4.50;99.90
76211;DHT22;65003;49.518;11.280;2024-01-30T08:43:39;4.50;99.90
76211;DHT22;65003;49.518;11.280;2024-01-30T08:46:06;4.40;99.90
76211;DHT22;65003;49.518;11.280;2024-01-30T08:48:33;4.60;99.90
76211;DHT22;65003;49.518;11.280;2024-01-30T08:51:00;4.70;99.90
76211;DHT22;65003;49.518;11.280;2024-01-30T08:53:26;4.70;99.90
76211;DHT22;65003;49.518;11.280;2024-01-30T08:55:53;4.70;99.90
76211;DHT22;65003;49.518;11.280;2024-01-30T08:58:19;5.00;99.90
76211;DHT22;65003;49.518;11.280;2024-01-30T09:00:46;4.00;99.70
76211;DHT22;65003;49.518;11.280;2024-01-30T09:03:13;4.90;99.90
76211;DHT22;65003;49.518;11.280;2024-01-30T09:05:40;4.80;99.70
76211;DHT22;65003;49.518;11.280;2024-01-30T09:08:07;5.10;99.70
76211;DHT22;65003;49.518;11.280;2024-01-30T09:10:33;5.20;99.40
76211;DHT22;65003;49.518;11.280;2024-01-30T09:13:00;5.30;99.40
76211;DHT22;65003;49.518;11.280;2024-01-30T09:15:27;5.20;99.40
76211;DHT22;65003;49.518;11.280;2024-01-30T09:17:53;5.00;99.50
76211;DHT22;65003;49.518;11.280;2024-01-30T09:20:20;5.00;99.20
76211;DHT22;65003;49.518;11.280;2024-01-30T09:22:46;5.30;99.00
76211;DHT22;65003;49.518;11.280;2024-01-30T09:25:13;5.40;99.20
76211;DHT22;65003;49.518;11.280;2024-01-30T09:27:40;5.50;99.20
76211;DHT22;65003;49.518;11.280;2024-01-30T09:30:07;5.40;99.20
76211;DHT22;65003;49.518;11.280;2024-01-30T09:32:34;5.60;99.00
76211;DHT22;65003;49.518;11.280;2024-01-30T09:35:00;4.80;98.90
76211;DHT22;65003;49.518;11.280;2024-01-30T09:37:27;4.70;99.10
76211;DHT22;65003;49.518;11.280;2024-01-30T09:39:53;5.40;99.30
76211;DHT22;65003;49.518;11.280;2024-01-30T09:42:33;5.60;99.30
76211;DHT22;65003;49.518;11.280;2024-01-30T09:44:57;5.90;99.00
76211;DHT22;65003;49.518;11.280;2024-01-30T09:47:24;6.30;98.20
76211;DHT22;65003;49.518;11.280;2024-01-30T09:49:51;6.30;97.40
76211;DHT22;65003;49.518;11.280;2024-01-30T09:52:17;6.40;97.30
76211;DHT22;65003;49.518;11.280;2024-01-30T09:54:45;6.50;97.30
76211;DHT22;65003;49.518;11.280;2024-01-30T09:57:11;6.50;97.40
76211;DHT22;65003;49.518;11.280;2024-01-30T09:59:38;6.70;97.30
76211;DHT22;65003;49.518;11.280;2024-01-30T10:02:04;7.00;97.00
76211;DHT22;65003;49.518;11.280;2024-01-30T10:04:31;6.80;96.90
76211;DHT22;65003;49.518;11.280;2024-01-30T10:06:59;7.20;96.50
76211;DHT22;65003;49.518;11.280;2024-01-30T10:09:24;7.30;96.10
76211;DHT22;65003;49.518;11.280;2024-01-30T10:11:51;7.40;95.80
76211;DHT22;65003;49.518;11.280;2024-01-30T10:14:17;7.70;95.20
76211;DHT22;65003;49.518;11.280;2024-01-30T10:16:46;8.10;94.30
76211;DHT22;65003;49.518;11.280;2024-01-30T10:19:11;8.60;93.20
76211;DHT22;65003;49.518;11.280;2024-01-30T10:21:40;9.10;92.30
76211;DHT22;65003;49.518;11.280;2024-01-30T10:24:06;9.40;91.70
76211;DHT22;65003;49.518;11.280;2024-01-30T10:26:33;9.70;91.40
76211;DHT22;65003;49.518;11.280;2024-01-30T10:28:59;9.90;90.70
76211;DHT22;65003;49.518;11.280;2024-01-30T10:31:26;10.30;90.50
76211;DHT22;65003;49.518;11.280;2024-01-30T10:33:52;10.20;87.80
76211;DHT22;65003;49.518;11.280;2024-01-30T10:36:19;10.70;86.20
76211;DHT22;65003;49.518;11.280;2024-01-30T10:38:46;10.70;86.00
76211;DHT22;65003;49.518;11.280;2024-01-30T10:41:12;10.80;85.80
76211;DHT22;65003;49.518;11.280;2024-01-30T10:43:40;10.40;86.90
76211;DHT22;65003;49.518;11.280;2024-01-30T10:46:10;10.30;87.60
76211;DHT22;65003;49.518;11.280;2024-01-30T10:48:36;10.10;87.90
76211;DHT22;65003;49.518;11.280;2024-01-30T10:51:02;10.10;88.40
76211;DHT22;65003;49.518;11.280;2024-01-30T10:53:29;9.70;89.60
76211;DHT22;65003;49.518;11.280;2024-01-30T10:55:55;9.70;89.70
76211;DHT22;65003;49.518;11.280;2024-01-30T10:58:22;9.90;90.20
76211;DHT22;65003;49.518;11.280;2024-01-30T11:00:49;9.80;89.80
76211;DHT22;65003;49.518;11.280;2024-01-30T11:03:15;9.80;90.00
76211;DHT22;65003;49.518;11.280;2024-01-30T11:05:42;10.10;89.30
76211;DHT22;65003;49.518;11.280;2024-01-30T11:08:11;10.30;88.40
76211;DHT22;65003;49.518;11.280;2024-01-30T11:10:55;10.10;89.20
76211;DHT22;65003;49.518;11.280;2024-01-30T11:13:18;10.20;88.60
76211;DHT22;65003;49.518;11.280;2024-01-30T11:15:47;10.30;88.20
76211;DHT22;65003;49.518;11.280;2024-01-30T11:18:22;10.40;87.70
76211;DHT22;65003;49.518;11.280;2024-01-30T11:20:39;9.80;87.20
76211;DHT22;65003;49.518;11.280;2024-01-30T11:23:06;10.20;88.20
76211;DHT22;65003;49.518;11.280;2024-01-30T11:25:32;9.30;88.30
76211;DHT22;65003;49.518;11.280;2024-01-30T11:27:59;10.00;88.80
76211;DHT22;65003;49.518;11.280;2024-01-30T11:30:27;10.00;88.90
76211;DHT22;65003;49.518;11.280;2024-01-30T11:33:00;9.90;89.60
76211;DHT22;65003;49.518;11.280;2024-01-30T11:35:26;10.00;89.50
76211;DHT22;65003;49.518;11.280;2024-01-30T11:37:53;10.10;89.60
76211;DHT22;65003;49.518;11.280;2024-01-30T11:40:20;10.20;89.10
76211;DHT22;65003;49.518;11.280;2024-01-30T11:42:46;10.30;88.80
76211;DHT22;65003;49.518;11.280;2024-01-30T11:45:13;10.30;88.80
76211;DHT22;65003;49.518;11.280;2024-01-30T11:47:40;10.30;88.80
76211;DHT22;65003;49.518;11.280;2024-01-30T11:50:06;10.40;89.20
76211;DHT22;65003;49.518;11.280;2024-01-30T11:52:33;10.20;89.20
76211;DHT22;65003;49.518;11.280;2024-01-30T11:55:00;10.20;89.80
76211;DHT22;65003;49.518;11.280;2024-01-30T11:57:27;10.20;90.00
76211;DHT22;65003;49.518;11.280;2024-01-30T11:59:53;10.50;90.00
76211;DHT22;65003;49.518;11.280;2024-01-30T12:02:19;10.60;89.00
76211;DHT22;65003;49.518;11.280;2024-01-30T12:04:46;10.90;89.10
76211;DHT22;65003;49.518;11.280;2024-01-30T12:07:13;10.80;88.80
76211;DHT22;65003;49.518;11.280;2024-01-30T12:09:39;10.60;88.50
76211;DHT22;65003;49.518;11.280;2024-01-30T12:12:06;10.90;88.20
76211;DHT22;65003;49.518;11.280;2024-01-30T12:14:33;10.80;87.80
76211;DHT22;65003;49.518;11.280;2024-01-30T12:16:59;10.70;88.60
76211;DHT22;65003;49.518;11.280;2024-01-30T12:19:26;10.80;88.10
76211;DHT22;65003;49.518;11.280;2024-01-30T12:21:57;10.80;88.30
76211;DHT22;65003;49.518;11.280;2024-01-30T12:24:25;10.90;88.30
76211;DHT22;65003;49.518;11.280;2024-01-30T12:26:50;10.70;88.30
76211;DHT22;65003;49.518;11.280;2024-01-30T12:29:17;10.60;88.90
76211;DHT22;65003;49.518;11.280;2024-01-30T12:31:44;10.60;89.20
76211;DHT22;65003;49.518;11.280;2024-01-30T12:34:13;10.50;89.40
76211;DHT22;65003;49.518;11.280;2024-01-30T12:36:37;9.70;89.00
76211;DHT22;65003;49.518;11.280;2024-01-30T12:39:03;10.40;90.00
76211;DHT22;65003;49.518;11.280;2024-01-30T12:41:30;10.50;90.00
76211;DHT22;65003;49.518;11.280;2024-01-30T12:43:57;10.50;89.80
76211;DHT22;65003;49.518;11.280;2024-01-30T12:46:29;10.60;90.10
76211;DHT22;65003;49.518;11.280;2024-01-30T12:48:55;10.70;90.00
76211;DHT22;65003;49.518;11.280;2024-01-30T12:51:22;10.70;90.00
76211;DHT22;65003;49.518;11.280;2024-01-30T12:53:48;10.50;90.00
76211;DHT22;65003;49.518;11.280;2024-01-30T12:56:16;10.60;90.00
76211;DHT22;65003;49.518;11.280;2024-01-30T12:58:43;10.80;90.00
76211;DHT22;65003;49.518;11.280;2024-01-30T13:01:10;11.00;90.00
76211;DHT22;65003;49.518;11.280;2024-01-30T13:03:36;10.80;90.00
76211;DHT22;65003;49.518;11.280;2024-01-30T13:06:03;11.00;90.00
76211;DHT22;65003;49.518;11.280;2024-01-30T13:08:30;10.80;90.10
76211;DHT22;65003;49.518;11.280;2024-01-30T13:10:56;10.80;90.30
76211;DHT22;65003;49.518;11.280;2024-01-30T13:13:23;10.80;90.30
76211;DHT22;65003;49.518;11.280;2024-01-30T13:15:49;10.90;90.60
76211;DHT22;65003;49.518;11.280;2024-01-30T13:18:16;10.70;90.50
76211;DHT22;65003;49.518;11.280;2024-01-30T13:20:42;10.70;90.70
76211;DHT22;65003;49.518;11.280;2024-01-30T13:23:09;10.70;90.60
76211;DHT22;65003;49.518;11.280;2024-01-30T13:25:36;10.70;90.40
76211;DHT22;65003;49.518;11.280;2024-01-30T13:28:02;10.80;90.50
76211;DHT22;65003;49.518;11.280;2024-01-30T13:30:29;10.80;90.40
76211;DHT22;65003;49.518;11.280;2024-01-30T13:32:56;10.90;90.40
76211;DHT22;65003;49.518;11.280;2024-01-30T13:35:22;10.90;90.30
76211;DHT22;65003;49.518;11.280;2024-01-30T13:37:49;11.10;90.60
76211;DHT22;65003;49.518;11.280;2024-01-30T13:40:15;10.50;90.30
76211;DHT22;65003;49.518;11.280;2024-01-30T13:42:42;11.50;90.00
76211;DHT22;65003;49.518;11.280;2024-01-30T13:45:09;11.40;89.10
76211;DHT22;65003;49.518;11.280;2024-01-30T13:47:36;11.50;88.50
76211;DHT22;65003;49.518;11.280;2024-01-30T13:50:03;11.20;88.20
76211;DHT22;65003;49.518;11.280;2024-01-30T13:52:29;11.50;89.20
76211;DHT22;65003;49.518;11.280;2024-01-30T13:54:56;11.50;88.40
76211;DHT22;65003;49.518;11.280;2024-01-30T13:57:23;11.60;88.40
76211;DHT22;65003;49.518;11.280;2024-01-30T13:59:49;11.70;88.00
76211;DHT22;65003;49.518;11.280;2024-01-30T14:02:16;11.70;88.30
76211;DHT22;65003;49.518;11.280;2024-01-30T14:04:43;11.60;88.70
76211;DHT22;65003;49.518;11.280;2024-01-30T14:07:09;11.40;89.10
76211;DHT22;65003;49.518;11.280;2024-01-30T14:09:36;11.40;89.30
76211;DHT22;65003;49.518;11.280;2024-01-30T14:12:02;11.40;89.40
76211;DHT22;65003;49.518;11.280;2024-01-30T14:14:29;11.40;89.40
76211;DHT22;65003;49.518;11.280;2024-01-30T14:16:56;11.40;89.90
76211;DHT22;65003;49.518;11.280;2024-01-30T14:19:22;11.30;90.00
76211;DHT22;65003;49.518;11.280;2024-01-30T14:21:49;11.50;90.30
76211;DHT22;65003;49.518;11.280;2024-01-30T14:24:15;11.90;90.60
76211;DHT22;65003;49.518;11.280;2024-01-30T14:26:42;11.60;90.40
76211;DHT22;65003;49.518;11.280;2024-01-30T14:29:09;11.50;90.10
76211;DHT22;65003;49.518;11.280;2024-01-30T14:31:35;11.40;90.10
76211;DHT22;65003;49.518;11.280;2024-01-30T14:34:02;11.40;90.20
76211;DHT22;65003;49.518;11.280;2024-01-30T14:36:29;11.40;90.20
76211;DHT22;65003;49.518;11.280;2024-01-30T14:38:57;11.60;90.40
76211;DHT22;65003;49.518;11.280;2024-01-30T14:41:23;11.50;90.50
76211;DHT22;65003;49.518;11.280;2024-01-30T14:43:50;11.60;90.20
76211;DHT22;65003;49.518;11.280;2024-01-30T14:46:17;11.80;90.40
76211;DHT22;65003;49.518;11.280;2024-01-30T14:48:43;11.50;90.40
76211;DHT22;65003;49.518;11.280;2024-01-30T14:51:10;11.50;90.20
76211;DHT22;65003;49.518;11.280;2024-01-30T14:53:36;11.60;90.30
76211;DHT22;65003;49.518;11.280;2024-01-30T14:56:03;11.70;90.30
76211;DHT22;65003;49.518;11.280;2024-01-30T14:58:30;11.60;90.60
76211;DHT22;65003;49.518;11.280;2024-01-30T15:00:57;11.80;90.70
76211;DHT22;65003;49.518;11.280;2024-01-30T15:03:23;11.60;90.80
76211;DHT22;65003;49.518;11.280;2024-01-30T15:05:50;11.80;90.90
76211;DHT22;65003;49.518;11.280;2024-01-30T15:08:16;11.40;90.60
76211;DHT22;65003;49.518;11.280;2024-01-30T15:10:43;11.30;90.70
76211;DHT22;65003;49.518;11.280;2024-01-30T15:13:10;11.30;90.80
76211;DHT22;65003;49.518;11.280;2024-01-30T15:15:36;10.90;91.00
76211;DHT22;65003;49.518;11.280;2024-01-30T15:18:03;10.90;91.50
76211;DHT22;65003;49.518;11.280;2024-01-30T15:20:30;10.80;91.80
76211;DHT22;65003;49.518;11.280;2024-01-30T15:22:58;10.80;92.10
76211;DHT22;65003;49.518;11.280;2024-01-30T15:25:24;10.70;92.00